createdAt,value
2022-07-27T00:01:40.039Z,100.00
2022-07-27T00:04:10.523Z,100.00
2022-07-27T00:06:37.054Z,100.00
2022-07-27T00:09:03.840Z,100.00
2022-07-27T00:11:30.338Z,100.00
2022-07-27T00:13:56.768Z,100.00
2022-07-27T00:16:23.284Z,100.00
2022-07-27T00:18:49.752Z,100.00
2022-07-27T00:21:16.220Z,100.00
2022-07-27T00:23:42.659Z,100.00
2022-07-27T00:26:09.201Z,100.00
2022-07-27T00:28:35.748Z,100.00
2022-07-27T00:31:02.305Z,100.00
2022-07-27T00:33:28.788Z,100.00
2022-07-27T00:35:55.528Z,100.00
2022-07-27T00:38:21.964Z,100.00
2022-07-27T00:40:48.384Z,100.00
2022-07-27T00:43:15.219Z,100.00
2022-07-27T00:45:41.829Z,100.00
2022-07-27T00:48:08.470Z,100.00
2022-07-27T00:50:35.439Z,100.00
2022-07-27T00:53:04.829Z,100.00
2022-07-27T00:55:33.470Z,100.00
2022-07-27T00:58:00.891Z,100.00
2022-07-27T01:00:28.641Z,100.00
2022-07-27T01:02:57.130Z,100.00
2022-07-27T01:05:24.352Z,100.00
2022-07-27T01:08:03.281Z,100.00
2022-07-27T01:10:29.753Z,100.00
2022-07-27T01:12:56.500Z,100.00
2022-07-27T01:15:22.993Z,100.00
2022-07-27T01:17:49.443Z,100.00
2022-07-27T01:20:15.908Z,100.00
2022-07-27T01:22:42.345Z,100.00
2022-07-27T01:25:10.074Z,100.00
2022-07-27T01:27:36.931Z,100.00
2022-07-27T01:30:24.396Z,100.00
2022-07-27T01:32:50.937Z,100.00
2022-07-27T01:35:17.453Z,100.00
2022-07-27T01:37:48.205Z,100.00
2022-07-27T01:40:15.048Z,100.00
2022-07-27T01:42:41.640Z,100.00
2022-07-27T01:45:09.032Z,100.00
2022-07-27T01:47:35.486Z,100.00
2022-07-27T01:50:02.213Z,100.00
2022-07-27T01:52:28.996Z,100.00
2022-07-27T01:54:55.456Z,100.00
2022-07-27T01:57:21.896Z,100.00
2022-07-27T01:59:48.356Z,100.00
2022-07-27T02:02:16.102Z,100.00
2022-07-27T02:04:43.201Z,100.00
2022-07-27T02:07:09.682Z,100.00
2022-07-27T02:09:36.309Z,100.00
2022-07-27T02:12:21.676Z,100.00
2022-07-27T02:14:48.153Z,100.00
2022-07-27T02:17:14.605Z,100.00
2022-07-27T02:19:41.471Z,99.89
2022-07-27T02:22:08.914Z,99.59
2022-07-27T02:24:37.745Z,99.58
2022-07-27T02:27:04.392Z,99.52
2022-07-27T02:29:30.868Z,98.57
2022-07-27T02:31:57.426Z,98.97
2022-07-27T02:34:23.865Z,99.25
2022-07-27T02:36:50.296Z,99.38
2022-07-27T02:39:16.686Z,99.51
2022-07-27T02:41:44.904Z,99.10
2022-07-27T02:44:11.305Z,99.33
2022-07-27T02:46:37.781Z,99.41
2022-07-27T02:49:04.251Z,99.44
2022-07-27T02:51:30.882Z,99.84
2022-07-27T02:53:57.283Z,100.00
2022-07-27T02:56:26.953Z,99.94
2022-07-27T02:58:53.765Z,100.00
2022-07-27T03:01:20.262Z,100.00
2022-07-27T03:03:47.244Z,100.00
2022-07-27T03:06:13.928Z,100.00
2022-07-27T03:08:40.595Z,100.00
2022-07-27T03:11:08.472Z,100.00
2022-07-27T03:13:34.867Z,99.73
2022-07-27T03:16:01.586Z,99.76
2022-07-27T03:18:28.114Z,99.71
2022-07-27T03:20:54.575Z,99.32
2022-07-27T03:23:21.461Z,99.06
2022-07-27T03:25:48.534Z,99.02
2022-07-27T03:28:14.941Z,99.12
2022-07-27T03:30:41.520Z,98.96
2022-07-27T03:33:07.981Z,99.16
2022-07-27T03:35:34.469Z,98.80
2022-07-27T03:38:00.938Z,99.08
2022-07-27T03:40:29.525Z,99.13
2022-07-27T03:42:56.234Z,99.41
2022-07-27T03:45:22.680Z,99.31
2022-07-27T03:47:49.076Z,99.44
2022-07-27T03:50:15.478Z,99.40
2022-07-27T03:52:45.443Z,99.87
2022-07-27T03:55:12.354Z,99.91
2022-07-27T03:57:38.804Z,100.00
2022-07-27T04:00:05.900Z,99.93
2022-07-27T04:02:32.433Z,100.00
2022-07-27T04:04:58.876Z,99.75
2022-07-27T04:07:25.802Z,99.80
2022-07-27T04:09:52.205Z,100.00
2022-07-27T04:12:19.998Z,100.00
2022-07-27T04:14:46.593Z,100.00
2022-07-27T04:17:13.081Z,100.00
2022-07-27T04:19:59.497Z,100.00
2022-07-27T04:22:25.966Z,99.99
2022-07-27T04:24:52.421Z,100.00
2022-07-27T04:27:18.840Z,99.87
2022-07-27T04:29:45.248Z,99.88
2022-07-27T04:32:11.764Z,100.00
2022-07-27T04:34:38.291Z,100.00
2022-07-27T04:37:05.853Z,100.00
2022-07-27T04:39:32.270Z,99.79
2022-07-27T04:41:58.721Z,99.67
2022-07-27T04:44:25.154Z,98.85
2022-07-27T04:46:51.616Z,98.45
2022-07-27T04:49:18.102Z,98.06
2022-07-27T04:51:45.029Z,98.59
2022-07-27T04:54:12.347Z,99.21
2022-07-27T04:56:38.984Z,99.89
2022-07-27T04:59:05.480Z,99.65
2022-07-27T05:01:35.240Z,99.76
2022-07-27T05:04:04.031Z,99.66
2022-07-27T05:06:32.888Z,99.79
2022-07-27T05:09:00.095Z,99.77
2022-07-27T05:11:26.492Z,99.86
2022-07-27T05:13:52.902Z,100.00
2022-07-27T05:16:19.480Z,100.00
2022-07-27T05:18:46.079Z,100.00
2022-07-27T05:21:12.613Z,100.00
2022-07-27T05:23:39.049Z,100.00
2022-07-27T05:26:05.589Z,100.00
2022-07-27T05:28:32.315Z,100.00
2022-07-27T05:30:59.009Z,100.00
2022-07-27T05:33:25.606Z,100.00
2022-07-27T05:35:52.364Z,100.00
2022-07-27T05:38:18.791Z,100.00
2022-07-27T05:40:46.278Z,100.00
2022-07-27T05:43:12.778Z,100.00
2022-07-27T05:45:39.395Z,100.00
2022-07-27T05:48:06.193Z,100.00
2022-07-27T05:50:32.650Z,100.00
2022-07-27T05:53:00.583Z,100.00
2022-07-27T05:55:27.301Z,100.00
2022-07-27T05:57:53.814Z,100.00
2022-07-27T06:00:20.248Z,100.00
2022-07-27T06:02:46.682Z,100.00
2022-07-27T06:05:15.929Z,100.00
2022-07-27T06:07:59.581Z,100.00
2022-07-27T06:10:32.269Z,100.00
2022-07-27T06:12:59.710Z,100.00
2022-07-27T06:15:26.301Z,100.00
2022-07-27T06:17:54.039Z,100.00
2022-07-27T06:20:21.522Z,100.00
2022-07-27T06:22:54.591Z,100.00
2022-07-27T06:25:22.175Z,100.00
2022-07-27T06:27:49.073Z,100.00
2022-07-27T06:30:18.264Z,100.00
2022-07-27T06:32:46.376Z,100.00
2022-07-27T06:35:14.018Z,100.00
2022-07-27T06:37:44.071Z,100.00
2022-07-27T06:40:14.391Z,100.00
2022-07-27T06:42:41.542Z,100.00
2022-07-27T06:45:09.528Z,100.00
2022-07-27T06:47:36.769Z,100.00
2022-07-27T06:50:17.578Z,100.00
2022-07-27T06:52:44.230Z,100.00
2022-07-27T06:55:10.665Z,100.00
2022-07-27T06:57:37.064Z,100.00
2022-07-27T07:00:04.894Z,100.00
2022-07-27T07:02:31.295Z,100.00
2022-07-27T07:04:57.770Z,100.00
2022-07-27T07:07:24.244Z,100.00
2022-07-27T07:09:51.344Z,100.00
2022-07-27T07:12:18.358Z,100.00
2022-07-27T07:14:45.516Z,100.00
2022-07-27T07:17:12.148Z,100.00
2022-07-27T07:19:38.691Z,100.00
2022-07-27T07:22:06.356Z,99.80
2022-07-27T07:24:32.857Z,99.89
2022-07-27T07:26:59.302Z,99.53
2022-07-27T07:29:25.727Z,99.23
2022-07-27T07:31:52.234Z,98.68
2022-07-27T07:34:18.715Z,98.39
2022-07-27T07:36:46.300Z,98.32
2022-07-27T07:39:13.103Z,97.96
2022-07-27T07:41:39.769Z,97.76
2022-07-27T07:44:06.660Z,97.29
2022-07-27T07:46:33.198Z,96.75
2022-07-27T07:48:59.745Z,95.32
2022-07-27T07:51:26.224Z,93.74
2022-07-27T07:53:52.677Z,93.51
2022-07-27T07:56:19.116Z,91.96
2022-07-27T07:58:45.611Z,91.02
2022-07-27T08:01:12.314Z,89.37
2022-07-27T08:03:38.750Z,88.32
2022-07-27T08:06:06.440Z,88.00
2022-07-27T08:08:33.059Z,87.44
2022-07-27T08:10:59.491Z,86.93
2022-07-27T08:13:25.953Z,86.16
2022-07-27T08:15:52.999Z,86.12
2022-07-27T08:18:19.894Z,85.91
2022-07-27T08:20:46.757Z,85.19
2022-07-27T08:23:13.276Z,84.82
2022-07-27T08:25:39.800Z,83.85
2022-07-27T08:28:06.417Z,83.17
2022-07-27T08:30:34.466Z,80.86
2022-07-27T08:33:03.489Z,79.43
2022-07-27T08:35:32.158Z,77.62
2022-07-27T08:37:59.190Z,77.40
2022-07-27T08:40:44.080Z,76.85
2022-07-27T08:43:12.111Z,75.18
2022-07-27T08:45:41.326Z,74.73
2022-07-27T08:48:12.809Z,70.25
2022-07-27T08:50:40.467Z,71.10
2022-07-27T08:53:09.339Z,69.24
2022-07-27T08:55:38.955Z,69.87
2022-07-27T08:58:06.538Z,68.63
2022-07-27T09:00:34.568Z,67.78
2022-07-27T09:03:01.383Z,67.08
2022-07-27T09:05:37.567Z,66.03
2022-07-27T09:08:28.813Z,62.66
2022-07-27T09:10:59.156Z,65.76
2022-07-27T09:13:34.395Z,60.88
2022-07-27T09:16:19.222Z,59.90
2022-07-27T09:18:47.135Z,59.71
2022-07-27T09:21:20.046Z,56.66
2022-07-27T09:23:50.335Z,57.22
2022-07-27T09:26:31.154Z,56.71
2022-07-27T09:29:03.845Z,56.02
2022-07-27T09:31:31.409Z,56.84
2022-07-27T09:34:01.598Z,56.77
2022-07-27T09:36:30.006Z,56.45
2022-07-27T09:39:07.977Z,53.07
2022-07-27T09:41:46.696Z,50.71
2022-07-27T09:44:32.185Z,52.50
2022-07-27T09:46:59.987Z,51.92
2022-07-27T09:49:28.956Z,50.67
2022-07-27T09:51:59.912Z,50.44
2022-07-27T09:54:27.334Z,50.81
2022-07-27T09:57:01.801Z,49.36
2022-07-27T09:59:29.901Z,50.12
2022-07-27T10:01:57.240Z,49.66
2022-07-27T10:04:24.984Z,50.20
2022-07-27T10:07:02.727Z,49.94
2022-07-27T10:09:31.043Z,50.02
2022-07-27T10:11:58.352Z,50.40
2022-07-27T10:14:25.617Z,50.29
2022-07-27T10:16:53.187Z,48.96
2022-07-27T10:19:41.862Z,44.90
2022-07-27T10:22:08.422Z,47.02
2022-07-27T10:24:37.171Z,46.64
2022-07-27T10:27:29.307Z,44.76
2022-07-27T10:29:57.470Z,46.20
2022-07-27T10:32:31.717Z,45.57
2022-07-27T10:34:59.764Z,46.38
2022-07-27T10:37:34.160Z,43.69
2022-07-27T10:40:26.941Z,44.02
2022-07-27T10:43:19.979Z,43.86
2022-07-27T10:46:01.846Z,44.68
2022-07-27T10:48:46.053Z,44.42
2022-07-27T10:51:16.564Z,44.03
2022-07-27T10:54:11.033Z,44.62
2022-07-27T10:56:47.965Z,44.96
2022-07-27T10:59:15.028Z,45.72
2022-07-27T11:01:57.279Z,45.73
2022-07-27T11:04:24.452Z,45.85
2022-07-27T11:07:23.611Z,45.62
2022-07-27T11:12:30.529Z,44.74
2022-07-27T11:14:58.631Z,44.07
2022-07-27T11:17:54.745Z,40.80
2022-07-27T11:20:22.673Z,40.41
2022-07-27T11:25:35.682Z,41.73
2022-07-27T11:28:07.481Z,40.96
2022-07-27T11:30:34.078Z,41.03
2022-07-27T11:33:04.463Z,39.39
2022-07-27T11:35:30.941Z,39.99
2022-07-27T11:38:03.638Z,39.26
2022-07-27T11:40:59.924Z,39.88
2022-07-27T11:43:37.690Z,40.75
2022-07-27T11:46:25.758Z,40.16
2022-07-27T11:49:09.480Z,39.25
2022-07-27T11:51:50.101Z,39.13
2022-07-27T11:54:34.803Z,38.38
2022-07-27T11:57:04.482Z,38.54
2022-07-27T11:59:32.656Z,37.38
2022-07-27T12:02:10.477Z,37.08
2022-07-27T12:04:39.672Z,36.69
2022-07-27T12:07:07.959Z,36.11
2022-07-27T12:09:39.084Z,34.42
2022-07-27T12:12:12.101Z,33.82
2022-07-27T12:14:45.745Z,34.93
2022-07-27T12:17:20.393Z,33.43
2022-07-27T12:20:00.549Z,33.50
2022-07-27T12:22:29.608Z,34.75
2022-07-27T12:24:57.827Z,34.29
2022-07-27T12:27:26.196Z,34.37
2022-07-27T12:30:09.260Z,33.64
2022-07-27T12:32:45.119Z,30.98
2022-07-27T12:35:24.308Z,30.97
2022-07-27T12:38:10.989Z,31.56
2022-07-27T12:40:46.502Z,32.85
2022-07-27T12:43:17.287Z,33.86
2022-07-27T12:45:44.188Z,33.88
2022-07-27T12:48:18.880Z,34.03
2022-07-27T12:50:48.078Z,33.63
2022-07-27T12:53:16.630Z,33.26
2022-07-27T12:55:44.012Z,32.82
2022-07-27T12:58:13.974Z,32.57
2022-07-27T13:00:41.243Z,32.81
2022-07-27T13:03:08.194Z,32.01
2022-07-27T13:05:36.701Z,31.06
2022-07-27T13:08:04.756Z,31.38
2022-07-27T13:10:31.691Z,31.24
2022-07-27T13:12:59.068Z,31.68
2022-07-27T13:15:25.772Z,31.57
2022-07-27T13:17:52.631Z,32.10
2022-07-27T13:20:19.270Z,31.44
2022-07-27T13:22:46.765Z,31.37
2022-07-27T13:25:15.957Z,31.18
2022-07-27T13:27:44.465Z,31.30
2022-07-27T13:30:11.949Z,31.49
2022-07-27T13:32:39.174Z,31.84
2022-07-27T13:35:07.533Z,31.97
2022-07-27T13:37:34.067Z,32.14
2022-07-27T13:40:00.721Z,32.45
2022-07-27T13:42:27.141Z,32.83
2022-07-27T13:45:10.849Z,32.77
2022-07-27T13:47:39.641Z,32.77
2022-07-27T13:50:15.183Z,32.79
2022-07-27T13:52:44.469Z,32.72
2022-07-27T13:55:10.961Z,32.95
2022-07-27T13:57:37.433Z,33.55
2022-07-27T14:00:04.614Z,32.82
2022-07-27T14:02:31.270Z,32.36
2022-07-27T14:04:58.509Z,32.42
2022-07-27T14:07:28.242Z,32.00
2022-07-27T14:10:24.617Z,32.12
2022-07-27T14:12:54.282Z,32.17
2022-07-27T14:15:24.965Z,32.23
2022-07-27T14:17:51.361Z,32.01
2022-07-27T14:20:18.232Z,32.53
2022-07-27T14:22:44.676Z,32.24
2022-07-27T14:25:11.225Z,32.46
2022-07-27T14:27:37.983Z,32.19
2022-07-27T14:30:06.751Z,31.92
2022-07-27T14:32:33.701Z,31.39
2022-07-27T14:35:00.353Z,31.12
2022-07-27T14:37:26.760Z,30.61
2022-07-27T14:39:53.242Z,30.43
2022-07-27T14:42:22.127Z,30.63
2022-07-27T14:44:48.514Z,30.83
2022-07-27T14:47:14.976Z,31.17
2022-07-27T14:49:41.442Z,31.05
2022-07-27T14:52:13.253Z,30.78
2022-07-27T14:54:44.704Z,30.68
2022-07-27T14:57:11.413Z,30.47
2022-07-27T14:59:38.628Z,30.22
2022-07-27T15:02:05.770Z,29.70
2022-07-27T15:04:33.136Z,29.61
2022-07-27T15:07:00.040Z,29.90
2022-07-27T15:09:30.198Z,29.94
2022-07-27T15:11:59.272Z,30.12
2022-07-27T15:14:26.419Z,30.18
2022-07-27T15:16:53.920Z,30.29
2022-07-27T15:19:20.393Z,30.47
2022-07-27T15:21:47.267Z,30.87
2022-07-27T15:24:14.136Z,30.85
2022-07-27T15:26:40.845Z,31.13
2022-07-27T15:29:07.513Z,31.14
2022-07-27T15:31:33.972Z,31.35
2022-07-27T15:34:01.578Z,31.63
2022-07-27T15:36:33.371Z,31.86
2022-07-27T15:39:01.069Z,32.01
2022-07-27T15:41:27.640Z,31.35
2022-07-27T15:43:55.304Z,31.03
2022-07-27T15:46:27.293Z,31.05
2022-07-27T15:48:54.944Z,30.46
2022-07-27T15:51:21.460Z,30.43
2022-07-27T15:53:47.975Z,29.71
2022-07-27T15:56:14.342Z,29.07
2022-07-27T15:58:40.819Z,28.67
2022-07-27T16:01:08.470Z,28.40
2022-07-27T16:03:38.558Z,28.20
2022-07-27T16:06:05.075Z,28.08
2022-07-27T16:08:31.628Z,27.98
2022-07-27T16:10:58.813Z,27.88
2022-07-27T16:13:25.793Z,27.41
2022-07-27T16:16:22.043Z,27.13
2022-07-27T16:18:49.340Z,26.30
2022-07-27T16:21:15.818Z,26.44
2022-07-27T16:23:42.281Z,26.15
2022-07-27T16:26:08.828Z,26.44
2022-07-27T16:28:43.173Z,25.98
2022-07-27T16:31:11.425Z,26.38
2022-07-27T16:33:38.322Z,26.44
2022-07-27T16:36:05.773Z,26.55
2022-07-27T16:38:32.232Z,26.36
2022-07-27T16:40:58.719Z,26.67
2022-07-27T16:43:37.961Z,26.78
2022-07-27T16:46:09.942Z,27.16
2022-07-27T16:48:42.645Z,27.36
2022-07-27T16:51:13.760Z,27.56
2022-07-27T16:53:42.421Z,28.11
2022-07-27T16:56:09.273Z,28.44
2022-07-27T16:58:36.458Z,28.73
2022-07-27T17:01:03.277Z,29.26
2022-07-27T17:03:29.887Z,29.63
2022-07-27T17:05:56.435Z,30.36
2022-07-27T17:08:28.002Z,30.49
2022-07-27T17:10:55.319Z,31.20
2022-07-27T17:13:21.915Z,31.36
2022-07-27T17:15:48.448Z,31.88
2022-07-27T17:18:16.041Z,32.51
2022-07-27T17:20:42.480Z,32.44
2022-07-27T17:23:10.120Z,32.89
2022-07-27T17:25:36.928Z,33.03
2022-07-27T17:28:03.632Z,33.20
2022-07-27T17:30:32.912Z,33.37
2022-07-27T17:33:02.920Z,33.40
2022-07-27T17:35:29.432Z,33.80
2022-07-27T17:38:06.256Z,33.84
2022-07-27T17:40:34.168Z,33.77
2022-07-27T17:43:00.721Z,34.16
2022-07-27T17:45:27.353Z,34.01
2022-07-27T17:47:53.882Z,34.20
2022-07-27T17:50:20.423Z,34.31
2022-07-27T17:52:46.890Z,34.05
2022-07-27T17:55:13.390Z,34.05
2022-07-27T17:57:39.828Z,33.93
2022-07-27T18:00:07.539Z,34.46
2022-07-27T18:02:36.415Z,34.29
2022-07-27T18:05:02.846Z,34.36
2022-07-27T18:07:29.253Z,34.92
2022-07-27T18:10:06.040Z,34.85
2022-07-27T18:12:34.410Z,34.98
2022-07-27T18:15:19.450Z,35.29
2022-07-27T18:17:45.832Z,35.84
2022-07-27T18:20:12.472Z,35.92
2022-07-27T18:22:39.054Z,36.09
2022-07-27T18:25:07.369Z,35.98
2022-07-27T18:27:35.350Z,36.65
2022-07-27T18:30:03.717Z,36.66
2022-07-27T18:32:30.203Z,36.76
2022-07-27T18:34:56.652Z,36.91
2022-07-27T18:37:23.068Z,37.24
2022-07-27T18:39:49.766Z,37.38
2022-07-27T18:42:16.236Z,37.61
2022-07-27T18:44:42.742Z,37.81
2022-07-27T18:47:09.165Z,37.74
2022-07-27T18:49:35.776Z,38.30
2022-07-27T18:52:02.312Z,38.73
2022-07-27T18:54:29.586Z,39.19
2022-07-27T18:56:56.223Z,40.01
2022-07-27T18:59:23.275Z,40.58
2022-07-27T19:01:49.824Z,40.84
2022-07-27T19:04:16.671Z,41.09
2022-07-27T19:06:44.563Z,41.68
2022-07-27T19:09:13.152Z,41.92
2022-07-27T19:11:39.794Z,42.25
2022-07-27T19:14:06.306Z,42.64
2022-07-27T19:16:34.298Z,43.16
2022-07-27T19:19:00.926Z,43.68
2022-07-27T19:21:27.871Z,44.20
2022-07-27T19:23:54.932Z,44.87
2022-07-27T19:26:21.373Z,44.95
2022-07-27T19:28:47.881Z,45.82
2022-07-27T19:31:22.606Z,46.26
2022-07-27T19:33:50.999Z,46.48
2022-07-27T19:36:17.727Z,47.41
2022-07-27T19:38:44.371Z,47.89
2022-07-27T19:41:10.820Z,48.02
2022-07-27T19:43:37.244Z,48.84
2022-07-27T19:46:03.767Z,49.43
2022-07-27T19:48:30.309Z,50.19
2022-07-27T19:51:00.862Z,51.49
2022-07-27T19:53:30.714Z,51.96
2022-07-27T19:55:58.171Z,52.10
2022-07-27T19:58:24.855Z,52.95
2022-07-27T20:00:51.590Z,53.25
2022-07-27T20:03:19.272Z,53.49
2022-07-27T20:05:47.016Z,53.95
2022-07-27T20:08:13.908Z,54.00
2022-07-27T20:10:42.505Z,55.07
2022-07-27T20:13:09.698Z,55.39
2022-07-27T20:15:36.739Z,56.11
2022-07-27T20:18:04.009Z,57.09
2022-07-27T20:20:30.957Z,57.87
2022-07-27T20:22:58.411Z,58.66
2022-07-27T20:25:25.775Z,59.62
2022-07-27T20:27:52.300Z,59.97
2022-07-27T20:30:19.923Z,60.35
2022-07-27T20:32:48.289Z,60.24
2022-07-27T20:35:15.378Z,60.96
2022-07-27T20:37:42.781Z,62.48
2022-07-27T20:40:11.656Z,62.41
2022-07-27T20:42:42.709Z,63.52
2022-07-27T20:45:11.301Z,63.41
2022-07-27T20:47:40.909Z,63.50
2022-07-27T20:50:09.251Z,63.67
2022-07-27T20:52:36.152Z,63.55
2022-07-27T20:55:02.610Z,64.38
2022-07-27T20:57:29.083Z,64.67
2022-07-27T20:59:55.508Z,66.20
2022-07-27T21:02:22.091Z,66.29
2022-07-27T21:04:48.634Z,66.02
2022-07-27T21:07:15.633Z,66.31
2022-07-27T21:09:42.056Z,66.70
2022-07-27T21:12:08.605Z,67.91
2022-07-27T21:14:34.992Z,68.56
2022-07-27T21:17:01.566Z,69.63
2022-07-27T21:19:28.088Z,69.69
2022-07-27T21:21:54.519Z,70.02
2022-07-27T21:24:22.766Z,70.23
2022-07-27T21:26:51.449Z,70.16
2022-07-27T21:29:19.554Z,70.47
2022-07-27T21:31:49.065Z,71.53
2022-07-27T21:34:18.000Z,71.89
2022-07-27T21:36:45.543Z,71.67
2022-07-27T21:39:12.259Z,71.98
2022-07-27T21:41:39.307Z,72.33
2022-07-27T21:44:05.849Z,72.63
2022-07-27T21:46:32.335Z,72.64
2022-07-27T21:48:58.916Z,73.09
2022-07-27T21:51:25.480Z,73.00
2022-07-27T21:53:52.065Z,73.56
2022-07-27T21:56:19.039Z,73.84
2022-07-27T21:58:45.884Z,74.28
2022-07-27T22:01:13.292Z,75.28
2022-07-27T22:03:41.194Z,76.04
2022-07-27T22:06:09.589Z,76.26
2022-07-27T22:08:36.292Z,76.93
2022-07-27T22:11:03.059Z,77.47
2022-07-27T22:13:29.716Z,76.55
2022-07-27T22:15:56.280Z,76.28
2022-07-27T22:18:22.747Z,77.07
2022-07-27T22:20:49.270Z,78.17
2022-07-27T22:23:16.231Z,79.00
2022-07-27T22:25:43.180Z,79.35
2022-07-27T22:28:09.764Z,80.04
2022-07-27T22:30:36.284Z,79.91
2022-07-27T22:33:02.733Z,80.61
2022-07-27T22:35:29.262Z,81.45
2022-07-27T22:37:55.663Z,82.67
2022-07-27T22:40:22.389Z,82.57
2022-07-27T22:42:48.804Z,82.80
2022-07-27T22:45:15.320Z,83.25
2022-07-27T22:47:42.552Z,84.50
2022-07-27T22:50:17.937Z,84.68
2022-07-27T22:52:44.954Z,84.95
2022-07-27T22:55:11.352Z,86.05
2022-07-27T22:57:37.873Z,86.70
2022-07-27T23:00:06.044Z,86.91
2022-07-27T23:02:32.569Z,87.50
2022-07-27T23:04:59.104Z,87.35
2022-07-27T23:07:25.642Z,87.92
2022-07-27T23:09:52.162Z,88.98
2022-07-27T23:12:18.618Z,89.02
2022-07-27T23:14:49.088Z,89.54
2022-07-27T23:17:15.859Z,90.17
2022-07-27T23:19:42.660Z,89.91
2022-07-27T23:22:10.977Z,89.73
2022-07-27T23:24:38.186Z,90.37
2022-07-27T23:27:07.544Z,90.30
2022-07-27T23:29:34.007Z,89.99
2022-07-27T23:32:00.606Z,89.91
2022-07-27T23:34:29.060Z,90.08
2022-07-27T23:36:55.784Z,90.51
2022-07-27T23:39:22.216Z,90.53
2022-07-27T23:41:50.182Z,90.75
2022-07-27T23:44:17.489Z,91.43
2022-07-27T23:46:44.145Z,91.46
2022-07-27T23:49:10.835Z,92.03
2022-07-27T23:51:37.382Z,92.33
2022-07-27T23:54:03.890Z,92.91
2022-07-27T23:56:30.330Z,93.32
2022-07-27T23:58:56.768Z,93.39
